createdAt,value
2019-02-23T00:01:41.446Z,6.62
2019-02-23T00:04:08.033Z,9.28
2019-02-23T00:06:34.818Z,9.38
2019-02-23T00:09:01.399Z,9.98
2019-02-23T00:11:27.981Z,12.37
2019-02-23T00:13:54.618Z,10.60
2019-02-23T00:16:21.257Z,10.58
2019-02-23T00:18:47.837Z,11.03
2019-02-23T00:21:14.471Z,12.95
2019-02-23T00:23:41.104Z,12.20
2019-02-23T00:26:07.865Z,10.80
2019-02-23T00:28:34.500Z,11.48
2019-02-23T00:31:01.201Z,9.85
2019-02-23T00:33:27.840Z,10.03
2019-02-23T00:35:54.472Z,7.37
2019-02-23T00:38:21.050Z,9.73
2019-02-23T00:40:47.680Z,8.93
2019-02-23T00:43:14.267Z,9.40
2019-02-23T00:45:40.903Z,8.80
2019-02-23T00:48:07.564Z,10.30
2019-02-23T00:50:34.149Z,9.18
2019-02-23T00:53:00.839Z,7.55
2019-02-23T00:55:27.426Z,8.43
2019-02-23T00:57:54.061Z,7.97
2019-02-23T01:00:20.691Z,7.33
2019-02-23T01:02:47.392Z,8.48
2019-02-23T01:05:14.026Z,8.55
2019-02-23T01:07:40.608Z,6.67
2019-02-23T01:10:07.190Z,8.53
2019-02-23T01:12:33.821Z,7.67
2019-02-23T01:15:00.467Z,7.95
2019-02-23T01:17:27.042Z,7.85
2019-02-23T01:19:53.629Z,8.05
2019-02-23T01:22:20.261Z,8.73
2019-02-23T01:24:46.894Z,6.50
2019-02-23T01:27:13.473Z,5.80
2019-02-23T01:29:40.100Z,6.20
2019-02-23T01:32:06.740Z,8.60
2019-02-23T01:34:33.376Z,6.30
2019-02-23T01:36:59.960Z,7.72
2019-02-23T01:39:26.584Z,8.23
2019-02-23T01:41:53.170Z,5.42
2019-02-23T01:44:19.803Z,6.62
2019-02-23T01:46:46.422Z,8.03
2019-02-23T01:49:13.007Z,8.13
2019-02-23T01:51:39.635Z,9.45
2019-02-23T01:54:06.214Z,5.80
2019-02-23T01:56:32.848Z,6.62
2019-02-23T01:58:59.455Z,8.88
2019-02-23T02:01:26.089Z,7.25
2019-02-23T02:03:52.726Z,7.67
2019-02-23T02:06:19.363Z,6.30
2019-02-23T02:08:45.985Z,6.87
2019-02-23T02:11:12.568Z,7.70
2019-02-23T02:13:39.199Z,6.60
2019-02-23T02:16:05.786Z,7.00
2019-02-23T02:18:32.411Z,6.58
2019-02-23T02:20:58.993Z,6.75
2019-02-23T02:23:25.621Z,8.28
2019-02-23T02:25:52.267Z,7.75
2019-02-23T02:28:18.852Z,8.43
2019-02-23T02:30:45.430Z,9.05
2019-02-23T02:33:12.062Z,7.40
2019-02-23T02:35:38.718Z,6.40
2019-02-23T02:38:05.351Z,7.40
2019-02-23T02:40:31.935Z,8.05
2019-02-23T02:42:58.554Z,8.43
2019-02-23T02:45:25.180Z,6.87
2019-02-23T02:47:51.754Z,9.83
2019-02-23T02:50:24.212Z,9.93
2019-02-23T02:52:46.697Z,9.08
2019-02-23T02:55:13.324Z,8.60
2019-02-23T02:57:39.909Z,10.78
2019-02-23T03:00:06.486Z,7.90
2019-02-23T03:02:33.169Z,9.35
2019-02-23T03:04:59.750Z,6.97
2019-02-23T03:07:26.373Z,11.03
2019-02-23T03:09:52.954Z,8.28
2019-02-23T03:12:19.575Z,9.68
2019-02-23T03:14:46.162Z,6.90
2019-02-23T03:17:12.788Z,9.95
2019-02-23T03:19:39.371Z,9.05
2019-02-23T03:22:06.131Z,7.28
2019-02-23T03:24:32.757Z,7.95
2019-02-23T03:26:59.380Z,8.68
2019-02-23T03:29:25.953Z,8.40
2019-02-23T03:31:52.574Z,10.28
2019-02-23T03:34:19.229Z,12.30
2019-02-23T03:36:45.858Z,10.98
2019-02-23T03:39:12.433Z,9.65
2019-02-23T03:41:39.097Z,8.88
2019-02-23T03:44:05.720Z,8.95
2019-02-23T03:46:32.298Z,7.83
2019-02-23T03:48:58.932Z,10.63
2019-02-23T03:51:25.508Z,8.63
2019-02-23T03:53:52.134Z,9.73
2019-02-23T03:56:18.714Z,9.50
2019-02-23T03:58:45.343Z,10.50
2019-02-23T04:01:11.922Z,9.03
2019-02-23T04:03:38.552Z,9.83
2019-02-23T04:06:05.127Z,10.82
2019-02-23T04:08:31.753Z,9.53
2019-02-23T04:10:58.328Z,9.43
2019-02-23T04:13:24.955Z,10.45
2019-02-23T04:15:51.534Z,12.33
2019-02-23T04:18:18.160Z,9.30
2019-02-23T04:20:44.740Z,10.03
2019-02-23T04:23:11.361Z,10.05
2019-02-23T04:25:37.939Z,10.45
2019-02-23T04:28:04.578Z,9.45
2019-02-23T04:30:31.222Z,7.72
2019-02-23T04:32:57.795Z,9.75
2019-02-23T04:35:24.425Z,8.40
2019-02-23T04:37:51.001Z,8.25
2019-02-23T04:40:17.646Z,11.38
2019-02-23T04:42:44.307Z,11.95
2019-02-23T04:45:10.875Z,12.10
2019-02-23T04:47:37.500Z,12.98
2019-02-23T04:50:04.076Z,8.98
2019-02-23T04:52:30.705Z,11.95
2019-02-23T04:54:57.281Z,9.03
2019-02-23T04:57:23.906Z,9.55
2019-02-23T04:59:50.543Z,9.85
2019-02-23T05:02:17.183Z,10.25
2019-02-23T05:04:43.765Z,9.45
2019-02-23T05:07:10.389Z,10.40
2019-02-23T05:09:36.960Z,10.15
2019-02-23T05:12:03.589Z,9.90
2019-02-23T05:14:30.167Z,9.90
2019-02-23T05:16:56.791Z,11.38
2019-02-23T05:19:23.365Z,9.30
2019-02-23T05:21:49.994Z,9.20
2019-02-23T05:24:16.629Z,11.80
2019-02-23T05:26:43.210Z,8.98
2019-02-23T05:29:09.848Z,9.95
2019-02-23T05:31:36.427Z,10.72
2019-02-23T05:34:03.007Z,11.00
2019-02-23T05:36:29.641Z,12.25
2019-02-23T05:38:56.219Z,9.70
2019-02-23T05:41:22.844Z,10.32
2019-02-23T05:43:49.423Z,9.48
2019-02-23T05:46:16.049Z,13.00
2019-02-23T05:48:42.630Z,10.43
2019-02-23T05:51:09.258Z,10.32
2019-02-23T05:53:35.839Z,9.80
2019-02-23T05:56:02.467Z,9.65
2019-02-23T05:58:29.039Z,10.82
2019-02-23T06:00:55.672Z,14.83
2019-02-23T06:03:22.247Z,12.23
2019-02-23T06:05:48.879Z,13.32
2019-02-23T06:08:15.580Z,11.45
2019-02-23T06:10:44.572Z,12.63
2019-02-23T06:13:10.568Z,9.53
2019-02-23T06:15:37.205Z,9.80
2019-02-23T06:18:03.788Z,11.60
2019-02-23T06:20:30.357Z,11.38
2019-02-23T06:22:56.979Z,12.28
2019-02-23T06:25:23.609Z,13.75
2019-02-23T06:27:50.227Z,12.55
2019-02-23T06:30:18.461Z,12.10
2019-02-23T06:32:45.236Z,11.45
2019-02-23T06:35:11.878Z,13.00
2019-02-23T06:37:38.510Z,10.88
2019-02-23T06:40:05.077Z,12.63
2019-02-23T06:42:31.701Z,9.33
2019-02-23T06:44:58.277Z,12.65
2019-02-23T06:47:24.900Z,12.90
2019-02-23T06:49:51.531Z,12.98
2019-02-23T06:52:18.159Z,14.38
2019-02-23T06:54:44.737Z,13.10
2019-02-23T06:57:11.367Z,15.88
2019-02-23T06:59:38.025Z,15.65
2019-02-23T07:02:04.724Z,16.23
2019-02-23T07:04:31.306Z,14.33
2019-02-23T07:06:57.936Z,16.27
2019-02-23T07:09:24.565Z,14.60
2019-02-23T07:11:51.148Z,29.75
2019-02-23T07:14:17.774Z,19.40
2019-02-23T07:16:44.355Z,18.45
2019-02-23T07:19:10.984Z,20.77
2019-02-23T07:21:37.608Z,16.15
2019-02-23T07:24:04.190Z,15.13
2019-02-23T07:26:30.820Z,18.50
2019-02-23T07:28:57.396Z,15.23
2019-02-23T07:31:23.977Z,16.12
2019-02-23T07:33:50.606Z,14.60
2019-02-23T07:36:17.301Z,16.48
2019-02-23T07:38:43.921Z,16.60
2019-02-23T07:41:10.504Z,13.55
2019-02-23T07:43:37.121Z,12.15
2019-02-23T07:46:03.706Z,16.45
2019-02-23T07:48:30.347Z,13.08
2019-02-23T07:50:56.989Z,14.80
2019-02-23T07:53:23.614Z,16.45
2019-02-23T07:55:50.193Z,15.40
2019-02-23T07:58:16.829Z,13.88
2019-02-23T08:00:43.404Z,13.13
2019-02-23T08:03:10.024Z,16.07
2019-02-23T08:05:36.659Z,13.65
2019-02-23T08:08:03.235Z,15.58
2019-02-23T08:10:29.809Z,18.05
2019-02-23T08:12:56.444Z,18.20
2019-02-23T08:15:23.021Z,13.80
2019-02-23T08:17:49.650Z,17.02
2019-02-23T08:20:16.231Z,16.17
2019-02-23T08:22:42.864Z,13.60
2019-02-23T08:25:09.438Z,15.23
2019-02-23T08:27:36.013Z,16.10
2019-02-23T08:30:02.642Z,13.75
2019-02-23T08:32:29.217Z,13.90
2019-02-23T08:34:55.847Z,13.48
2019-02-23T08:37:22.474Z,14.13
2019-02-23T08:39:49.048Z,14.50
2019-02-23T08:42:15.632Z,12.13
2019-02-23T08:44:42.260Z,12.07
2019-02-23T08:47:08.832Z,11.05
2019-02-23T08:49:35.481Z,11.48
2019-02-23T08:52:02.107Z,10.48
2019-02-23T08:54:28.688Z,11.50
2019-02-23T08:56:55.453Z,11.57
2019-02-23T08:59:22.221Z,10.88
2019-02-23T09:01:48.840Z,9.55
2019-02-23T09:04:15.416Z,9.85
2019-02-23T09:06:42.041Z,10.40
2019-02-23T09:09:08.670Z,10.48
2019-02-23T09:11:35.243Z,9.43
2019-02-23T09:14:01.867Z,9.65
2019-02-23T09:16:28.499Z,8.98
2019-02-23T09:18:55.140Z,8.90
2019-02-23T09:21:21.716Z,7.58
2019-02-23T09:23:48.333Z,6.90
2019-02-23T09:26:14.956Z,7.22
2019-02-23T09:28:41.584Z,9.08
2019-02-23T09:31:08.218Z,7.42
2019-02-23T09:33:34.787Z,8.88
2019-02-23T09:36:01.369Z,7.47
2019-02-23T09:38:27.993Z,8.38
2019-02-23T09:40:54.565Z,7.78
2019-02-23T09:43:21.192Z,7.05
2019-02-23T09:45:47.765Z,6.25
2019-02-23T09:48:14.398Z,7.53
2019-02-23T09:50:40.968Z,6.28
2019-02-23T09:53:11.158Z,7.20
2019-02-23T09:55:35.892Z,6.60
2019-02-23T09:58:02.469Z,6.83
2019-02-23T10:00:29.092Z,6.80
2019-02-23T10:02:55.667Z,5.35
2019-02-23T10:05:22.289Z,6.00
2019-02-23T10:07:48.870Z,7.22
2019-02-23T10:10:15.490Z,7.37
2019-02-23T10:12:42.064Z,6.53
2019-02-23T10:15:08.690Z,6.25
2019-02-23T10:17:35.262Z,4.85
2019-02-23T10:20:01.892Z,5.62
2019-02-23T10:22:28.463Z,5.15
2019-02-23T10:24:55.091Z,6.53
2019-02-23T10:27:21.712Z,5.75
2019-02-23T10:29:48.367Z,4.90
2019-02-23T10:32:14.991Z,4.78
2019-02-23T10:34:41.619Z,6.05
2019-02-23T10:37:08.196Z,5.60
2019-02-23T10:39:34.821Z,5.45
2019-02-23T10:42:01.405Z,5.85
2019-02-23T10:44:28.016Z,5.20
2019-02-23T10:46:54.814Z,4.78
2019-02-23T10:49:21.440Z,6.37
2019-02-23T10:51:48.015Z,6.80
2019-02-23T10:54:14.642Z,5.53
2019-02-23T10:56:41.218Z,5.83
2019-02-23T10:59:07.844Z,5.35
2019-02-23T11:01:34.418Z,6.20
2019-02-23T11:04:01.300Z,6.45
2019-02-23T11:06:27.871Z,7.67
2019-02-23T11:08:54.443Z,7.22
2019-02-23T11:11:21.073Z,7.33
2019-02-23T11:13:47.645Z,5.87
2019-02-23T11:16:14.285Z,6.62
2019-02-23T11:18:40.698Z,4.70
2019-02-23T11:21:07.312Z,6.08
2019-02-23T11:23:43.497Z,6.42
2019-02-23T11:26:02.367Z,5.50
2019-02-23T11:28:28.941Z,6.50
2019-02-23T11:30:55.565Z,5.12
2019-02-23T11:33:22.190Z,5.97
2019-02-23T11:35:48.769Z,6.67
2019-02-23T11:38:15.379Z,6.55
2019-02-23T11:40:41.963Z,7.65
2019-02-23T11:43:08.585Z,5.85
2019-02-23T11:45:35.159Z,7.03
2019-02-23T11:48:01.781Z,6.65
2019-02-23T11:50:28.408Z,7.28
2019-02-23T11:52:54.983Z,7.30
2019-02-23T11:55:21.603Z,5.75
2019-02-23T11:57:48.222Z,6.97
2019-02-23T12:00:14.893Z,6.78
2019-02-23T12:02:51.752Z,7.95
2019-02-23T12:05:09.873Z,6.90
2019-02-23T12:07:36.500Z,7.58
2019-02-23T12:10:03.080Z,9.78
2019-02-23T12:12:29.653Z,6.55
2019-02-23T12:14:56.277Z,8.23
2019-02-23T12:17:22.903Z,7.65
2019-02-23T12:19:49.603Z,7.20
2019-02-23T12:22:16.173Z,7.15
2019-02-23T12:24:42.801Z,6.92
2019-02-23T12:27:09.450Z,7.53
2019-02-23T12:29:36.075Z,8.90
2019-02-23T12:32:02.697Z,8.18
2019-02-23T12:34:29.272Z,7.55
2019-02-23T12:36:57.517Z,7.40
2019-02-23T12:39:24.351Z,6.92
2019-02-23T12:41:50.971Z,7.15
2019-02-23T12:44:17.546Z,8.35
2019-02-23T12:46:44.167Z,7.58
2019-02-23T12:49:10.835Z,7.53
2019-02-23T12:51:37.407Z,8.10
2019-02-23T12:54:04.033Z,6.45
2019-02-23T12:56:30.607Z,7.15
2019-02-23T12:58:57.230Z,8.20
2019-02-23T13:01:23.819Z,7.22
2019-02-23T13:03:50.442Z,7.20
2019-02-23T13:06:17.022Z,5.85
2019-02-23T13:08:43.650Z,6.97
2019-02-23T13:11:10.222Z,7.65
2019-02-23T13:13:36.847Z,6.70
2019-02-23T13:16:03.416Z,7.17
2019-02-23T13:18:30.037Z,6.50
2019-02-23T13:20:56.653Z,6.40
2019-02-23T13:23:23.235Z,6.60
2019-02-23T13:25:49.868Z,7.30
2019-02-23T13:28:16.442Z,7.03
2019-02-23T13:30:43.019Z,8.38
2019-02-23T13:33:09.636Z,10.13
2019-02-23T13:35:36.263Z,9.90
2019-02-23T13:38:02.834Z,10.98
2019-02-23T13:40:29.457Z,9.65
2019-02-23T13:42:56.030Z,7.75
2019-02-23T13:45:22.656Z,8.85
2019-02-23T13:47:49.227Z,7.80
2019-02-23T13:50:15.802Z,7.30
2019-02-23T13:52:42.422Z,6.75
2019-02-23T13:55:08.993Z,7.78
2019-02-23T13:57:35.614Z,7.87
2019-02-23T14:00:02.194Z,7.08
2019-02-23T14:02:28.818Z,7.95
2019-02-23T14:04:55.387Z,7.45
2019-02-23T14:07:22.023Z,8.05
2019-02-23T14:09:48.599Z,6.33
2019-02-23T14:12:15.176Z,8.60
2019-02-23T14:14:41.802Z,7.45
2019-02-23T14:17:08.380Z,7.33
2019-02-23T14:19:35.003Z,6.75
2019-02-23T14:22:01.581Z,9.75
2019-02-23T14:24:28.155Z,9.90
2019-02-23T14:26:54.779Z,8.65
2019-02-23T14:29:21.357Z,9.55
2019-02-23T14:31:47.983Z,7.53
2019-02-23T14:34:14.683Z,8.33
2019-02-23T14:36:41.320Z,7.47
2019-02-23T14:39:07.892Z,6.87
2019-02-23T14:41:34.566Z,7.95
2019-02-23T14:44:01.263Z,8.53
2019-02-23T14:46:27.925Z,12.28
2019-02-23T14:48:54.538Z,9.23
2019-02-23T14:51:21.165Z,8.73
2019-02-23T14:53:47.782Z,9.90
2019-02-23T14:56:14.456Z,7.67
2019-02-23T14:58:41.135Z,10.53
2019-02-23T15:01:07.858Z,14.00
2019-02-23T15:03:34.442Z,12.35
2019-02-23T15:06:01.339Z,15.35
2019-02-23T15:08:27.970Z,10.78
2019-02-23T15:10:54.550Z,10.32
2019-02-23T15:13:21.188Z,18.45
2019-02-23T15:15:47.766Z,12.28
2019-02-23T15:18:14.346Z,12.47
2019-02-23T15:20:40.975Z,10.00
2019-02-23T15:23:07.554Z,8.00
2019-02-23T15:25:34.185Z,9.28
2019-02-23T15:28:00.837Z,9.40
2019-02-23T15:30:29.777Z,15.13
2019-02-23T15:32:55.767Z,11.60
2019-02-23T15:35:22.393Z,10.35
2019-02-23T15:37:48.987Z,10.13
2019-02-23T15:40:15.677Z,14.28
2019-02-23T15:42:42.244Z,9.78
2019-02-23T15:45:09.009Z,22.58
2019-02-23T15:47:35.609Z,21.25
2019-02-23T15:50:12.597Z,37.08
2019-02-23T15:52:30.553Z,21.62
2019-02-23T15:54:57.184Z,17.57
2019-02-23T15:57:23.815Z,10.30
2019-02-23T15:59:50.392Z,9.05
2019-02-23T16:02:17.018Z,7.95
2019-02-23T16:04:43.628Z,8.85
2019-02-23T16:07:10.252Z,7.05
2019-02-23T16:09:36.832Z,6.40
2019-02-23T16:12:03.451Z,7.05
2019-02-23T16:14:30.071Z,7.15
2019-02-23T16:16:56.679Z,7.50
2019-02-23T16:19:23.354Z,9.13
2019-02-23T16:21:52.836Z,9.48
2019-02-23T16:24:18.281Z,9.00
2019-02-23T16:26:44.904Z,8.85
2019-02-23T16:29:11.532Z,8.58
2019-02-23T16:31:38.154Z,7.97
2019-02-23T16:34:07.156Z,8.18
2019-02-23T16:36:33.082Z,7.17
2019-02-23T16:38:59.719Z,9.43
2019-02-23T16:41:26.376Z,9.38
2019-02-23T16:43:52.948Z,7.95
2019-02-23T16:46:19.571Z,9.05
2019-02-23T16:48:46.142Z,8.20
2019-02-23T16:51:12.761Z,9.25
2019-02-23T16:53:39.383Z,7.60
2019-02-23T16:56:05.956Z,8.30
2019-02-23T16:58:32.580Z,8.65
2019-02-23T17:00:59.151Z,8.73
2019-02-23T17:03:25.782Z,6.97
2019-02-23T17:05:52.356Z,8.38
2019-02-23T17:08:18.926Z,7.20
2019-02-23T17:10:45.548Z,8.48
2019-02-23T17:13:12.125Z,6.87
2019-02-23T17:15:38.752Z,7.47
2019-02-23T17:18:05.327Z,8.88
2019-02-23T17:20:31.953Z,7.80
2019-02-23T17:22:58.522Z,7.25
2019-02-23T17:25:25.144Z,7.67
2019-02-23T17:27:51.721Z,6.92
2019-02-23T17:30:18.291Z,7.20
2019-02-23T17:32:44.916Z,7.35
2019-02-23T17:35:11.538Z,7.45
2019-02-23T17:37:38.119Z,7.45
2019-02-23T17:40:04.740Z,7.10
2019-02-23T17:42:31.377Z,8.43
2019-02-23T17:44:57.954Z,10.35
2019-02-23T17:47:24.531Z,22.32
2019-02-23T17:49:51.339Z,20.45
2019-02-23T17:52:17.917Z,11.78
2019-02-23T17:54:44.535Z,10.13
2019-02-23T17:57:11.106Z,9.85
2019-02-23T17:59:37.729Z,11.28
2019-02-23T18:02:04.306Z,11.57
2019-02-23T18:04:30.945Z,10.18
2019-02-23T18:06:57.516Z,9.60
2019-02-23T18:09:24.085Z,12.13
2019-02-23T18:11:50.715Z,15.13
2019-02-23T18:14:17.289Z,16.25
2019-02-23T18:16:43.913Z,19.10
2019-02-23T18:19:10.539Z,21.07
2019-02-23T18:21:37.112Z,23.73
2019-02-23T18:24:03.733Z,17.73
2019-02-23T18:26:30.307Z,17.50
2019-02-23T18:28:56.941Z,13.32
2019-02-23T18:31:23.535Z,14.78
2019-02-23T18:33:50.235Z,16.82
2019-02-23T18:36:16.810Z,23.27
2019-02-23T18:38:43.382Z,21.15
2019-02-23T18:41:10.004Z,19.40
2019-02-23T18:43:36.589Z,17.70
2019-02-23T18:46:03.215Z,16.90
2019-02-23T18:48:29.786Z,16.52
2019-02-23T18:50:57.348Z,17.00
2019-02-23T18:53:23.928Z,19.62
2019-02-23T18:55:50.557Z,18.07
2019-02-23T18:58:17.139Z,18.20
2019-02-23T19:00:43.760Z,15.25
2019-02-23T19:03:10.379Z,16.75
2019-02-23T19:05:36.967Z,17.40
2019-02-23T19:08:06.227Z,14.43
2019-02-23T19:10:33.081Z,14.63
2019-02-23T19:12:59.710Z,12.03
2019-02-23T19:15:26.291Z,13.08
2019-02-23T19:17:52.917Z,12.90
2019-02-23T19:20:19.497Z,14.68
2019-02-23T19:22:46.229Z,14.47
2019-02-23T19:25:12.812Z,12.73
2019-02-23T19:27:39.444Z,14.55
2019-02-23T19:30:06.022Z,11.75
2019-02-23T19:32:32.596Z,14.75
2019-02-23T19:34:59.226Z,11.15
2019-02-23T19:37:25.805Z,9.88
2019-02-23T19:39:52.386Z,11.12
2019-02-23T19:42:19.014Z,12.25
2019-02-23T19:44:45.639Z,11.40
2019-02-23T19:47:12.218Z,14.50
2019-02-23T19:49:38.847Z,14.07
2019-02-23T19:52:05.426Z,15.20
2019-02-23T19:54:32.058Z,18.30
2019-02-23T19:56:58.637Z,18.70
2019-02-23T19:59:25.219Z,18.73
2019-02-23T20:01:51.841Z,19.80
2019-02-23T20:04:18.416Z,20.02
2019-02-23T20:06:45.036Z,20.82
2019-02-23T20:09:11.619Z,21.07
2019-02-23T20:11:38.263Z,21.60
2019-02-23T20:14:04.843Z,21.55
2019-02-23T20:16:31.423Z,21.05
2019-02-23T20:18:58.050Z,21.45
2019-02-23T20:21:24.705Z,19.80
2019-02-23T20:23:51.329Z,20.30
2019-02-23T20:26:18.004Z,22.35
2019-02-23T20:28:44.585Z,19.67
2019-02-23T20:31:11.164Z,20.43
2019-02-23T20:33:37.791Z,19.85
2019-02-23T20:36:04.367Z,17.37
2019-02-23T20:38:31.004Z,15.80
2019-02-23T20:40:57.646Z,16.93
2019-02-23T20:43:24.272Z,14.70
2019-02-23T20:45:50.862Z,15.20
2019-02-23T20:48:17.667Z,16.07
2019-02-23T20:50:44.376Z,16.55
2019-02-23T20:53:11.032Z,14.03
2019-02-23T20:55:37.659Z,12.80
2019-02-23T20:58:04.231Z,17.02
2019-02-23T21:00:30.858Z,13.93
2019-02-23T21:02:57.435Z,14.70
2019-02-23T21:05:24.060Z,12.63
2019-02-23T21:07:50.868Z,13.55
2019-02-23T21:10:17.568Z,13.72
2019-02-23T21:12:44.197Z,13.98
2019-02-23T21:15:10.772Z,16.10
2019-02-23T21:17:37.403Z,15.83
2019-02-23T21:20:03.983Z,15.98
2019-02-23T21:22:30.619Z,16.67
2019-02-23T21:24:57.192Z,13.95
2019-02-23T21:27:23.819Z,15.68
2019-02-23T21:29:50.389Z,15.38
2019-02-23T21:32:17.021Z,17.57
2019-02-23T21:34:43.645Z,14.65
2019-02-23T21:37:10.276Z,19.77
2019-02-23T21:39:36.900Z,17.37
2019-02-23T21:42:03.479Z,16.15
2019-02-23T21:44:30.107Z,18.87
2019-02-23T21:46:56.680Z,16.10
2019-02-23T21:49:23.309Z,14.00
2019-02-23T21:51:49.884Z,16.55
2019-02-23T21:54:16.514Z,15.48
2019-02-23T21:56:43.104Z,16.80
2019-02-23T21:59:09.717Z,18.35
2019-02-23T22:01:36.315Z,16.45
2019-02-23T22:04:03.012Z,15.68
2019-02-23T22:06:29.655Z,17.90
2019-02-23T22:08:56.291Z,18.32
2019-02-23T22:11:22.992Z,18.25
2019-02-23T22:13:49.677Z,17.82
2019-02-23T22:16:16.313Z,17.52
2019-02-23T22:18:42.879Z,19.42
2019-02-23T22:21:09.504Z,17.05
2019-02-23T22:23:36.081Z,15.50
2019-02-23T22:26:02.716Z,16.60
2019-02-23T22:28:29.292Z,19.05
2019-02-23T22:30:55.920Z,17.20
2019-02-23T22:33:22.699Z,16.50
2019-02-23T22:35:49.459Z,17.17
2019-02-23T22:38:16.087Z,15.43
2019-02-23T22:40:42.657Z,15.03
2019-02-23T22:43:09.280Z,22.07
2019-02-23T22:45:35.855Z,20.00
2019-02-23T22:48:02.476Z,20.10
2019-02-23T22:50:29.109Z,19.07
2019-02-23T22:52:55.685Z,15.70
2019-02-23T22:55:22.421Z,16.45
2019-02-23T22:57:48.993Z,17.10
2019-02-23T23:00:15.618Z,15.75
2019-02-23T23:02:42.193Z,14.85
2019-02-23T23:05:08.828Z,28.45
2019-02-23T23:07:35.409Z,44.75
2019-02-23T23:10:01.988Z,46.73
2019-02-23T23:12:28.628Z,49.77
2019-02-23T23:14:55.199Z,40.63
2019-02-23T23:17:21.774Z,33.70
2019-02-23T23:19:48.407Z,29.42
2019-02-23T23:22:14.981Z,29.50
2019-02-23T23:24:41.602Z,20.57
2019-02-23T23:27:08.232Z,15.15
2019-02-23T23:29:34.808Z,18.07
2019-02-23T23:32:01.442Z,16.93
2019-02-23T23:34:28.017Z,15.95
2019-02-23T23:36:54.640Z,14.68
2019-02-23T23:39:21.218Z,11.70
2019-02-23T23:41:47.849Z,13.35
2019-02-23T23:44:14.428Z,10.68
2019-02-23T23:46:41.004Z,11.20
2019-02-23T23:49:07.637Z,8.40
2019-02-23T23:51:34.210Z,10.85
2019-02-23T23:54:00.839Z,11.30
2019-02-23T23:56:27.417Z,11.15
2019-02-23T23:58:54.046Z,10.75
